Astoria, New York
Current Conditions -  °F | °C
As of 6:51 PM on Friday 19 Dec 2014 (Local Time) from KNYC Reporting Station
Broken Clouds Broken Clouds  
Wind Chill: 27°   Ceiling: 3500
Heat Index: 32°   Visibility: 10mi
Dew Point: 19°   Wind: 5mph
Humidity: 59%   Direction: NA
Pressure: 30.16"   Gusts: NA
Location:  40.77°N, 73.93°W
Report Text: KNYC 192351Z AUTO VRB04KT 10SM BKN035 00/M07 A3016 RMK AO2 SLP207 T00001072 10028 20000 53024 $
Loading
Personal Weather Stations






























Interactive Weather Map New forecast layout! Learn more

10-Day Weather Forecast

Advertisements
Track Severe Weather on mobile